AREA preflight bulletin
Updated "live" 20 Oct 2018, 23:22

back to the map




METAR og TAF


THULE (MIL)
  AKTUEL BGTL 202156Z AUTO 10008KT 9999 OVC020 M13/M16 A2951 RMK AO2 SLP983 T11341157 TSNO ?=
  TAF 24 timer BGTL 191700Z 1917/2023 06009KT 9999 SCT050 QNH2962INS TXM08/1918Z TNM16/2017Z LAST NO AMDS AFT 1919 NEXT 2209=

QAANAAQ
  AKTUEL BGQQ 202320Z AUTO 03002KT 9999NDV NCD M16/M22 Q1002=
  TAF 9 timer BGQQ 201700Z 2017/2019 CNL=

UPERNAVIK
  AKTUEL BGUK 202320Z AUTO 15019KT 3900NDV -SN FEW010/// BKN034/// M07/M08 Q1001=
  TAF 9 timer BGUK 201858Z 2018/2020 CNL=

ILULISSAT
  AKTUEL BGJN 202320Z AUTO 12015KT 9999NDV BKN050/// M08/M14 Q1007=
  TAF 9 timer BGJN 201417Z 2015/2019 12017KT 9999 BKN045 TEMPO 2015/2019 DRSN BKN025=

KANGERLUSSUAQ
  AKTUEL BGSF 202320Z AUTO 07007KT 9999NDV BKN024/// BKN060/// M10/M13 Q1010=
  TAF 24 timer BGSF 202300Z 2100/2119 07008KT 9999 BKN060 TEMPO 2100/2103 6000 -SN BKN020 TEMPO 2103/2111 BKN035 BECMG 2111/2113 FEW060=


SIGMETS:

SONDRESTROM FIR
  SIGMET BGGL SIGMET 11 VALID 202215/210215 BGSF- BGGL NUUK FIR SEV TURB FCST AT 2215Z WI N5936 W04307 - N5952 W04509 - N6559 W04203 - N6531 W03847 - N5936 W04307 SFC/FL090 STNR NC=

SNOWTAM:

ICAO
BGSF (KANGERLUSSUAQ)

valid from:
1810201845

Notam_id:
0030

SNOWTAM 0030 A)BGSF B)10201845 C)09 F)4/4/4 H)5/5/5 N)A B C D/4/GOOD R)N E W HELIPAD/4/GOOD T)MEASURED FRICTION COEFFICIENTS 60/65/70 TAP, RUNWAY CONTAMINATION 100 PERCENT 1MM DRY SNOW



NOTAM/SNOWTAM for operationel use has to be confirmed with the
nearest AIS Briefing Office prior to a flight.

ICAO
BGTL (THULE (MIL))

FIR
BGGL

Notam_id:
BGA0383/18

valid from:
1810110000

E) TRIGGER NOTAM - PERM AIP AIRAC AMDT 09/18 WEF 11 OCT 2018. CHANGE TO TEL.

valid to:
1810242359




ICAO
BGQQ (QAANAAQ)

FIR
BGGL

Notam_id:
BGB0811/18

valid from:
1810121100

E) SEA RESCUE SERVICE NOT AVAILABLE

valid to:
1907151100




ICAO
BGUK (UPERNAVIK)

FIR
BGGL

Notam_id:
BGB0699/18

valid from:
1810110000

E) TRIGGER NOTAM - PERM AIP AIRAC AMDT 09/18 WEF 11 OCT 2018. NEW TEL ADDED.

valid to:
1810242359




ICAO
BGUK (UPERNAVIK)

FIR
BGGL

Notam_id:
BGB0631/18

valid from:
1807271443

E) FIRE AND RESCUE CAT.5 ONLY AVAILABLE WHEN REQUESTED DUE TO LACK OF STAFF.

valid to:
1812311400EST


Replacing:
BGB0610/18

ICAO
BGGL (SONDRESTROM FIR)

FIR
BGGL

Notam_id:
BGA0473/18

valid from:
1810010452

E) CHECKLIST YEAR=2017 0269 YEAR=2018 0199 0383 0442 0443 0444 0445 0451 0468 0469 0470 0471 0472 LATEST PUBLICATIONS AIP AIRAC AMDT IFR 009/2018 EFFECTIVE DATE 11 OCT 18 AIP AMDT IFR 003/2018 EFFECTIVE DATE 15 MAR 18 AIP SUP IFR 006/2018 EFFECTIVE DATE 18 JUN 18 AIC IFR A003/2018 EFFECTIVE DATE 29 AUG 18

valid to:
1811010452EST


Replacing:
BGA0405/18

ICAO
BGGL (SONDRESTROM FIR)

FIR
BGGL

Notam_id:
BGB0782/18

valid from:
1810010453

E) CHECKLIST YEAR=2017 0740 0930 YEAR=2018 0605 0618 0622 0631 0659 0696 0697 0698 0699 0704 0728 0750 0759 0760 0772 0773 0776 0777 0781 LATEST PUBLICATIONS AIP AIRAC AMDT IFR 009/2018 EFFECTIVE DATE 11 OCT 18 AIP AMDT IFR 003/2018 EFFECTIVE DATE 15 MAR 18 AIP SUP IFR 006/2018 EFFECTIVE DATE 18 JUN 18 AIC IFR A003/2018 EFFECTIVE DATE 29 AUG 18

valid to:
1811010453EST


Replacing:
BGB0731/18

ICAO
BGGL (SONDRESTROM FIR)

FIR
BGGL

Notam_id:
BGC0063/18

valid from:
1810010453

E) CHECKLIST YEAR=2018 0058 0059 0060 LATEST PUBLICATIONS AIP AIRAC AMDT IFR 009/2018 EFFECTIVE DATE 11 OCT 18 AIP AMDT IFR 003/2018 EFFECTIVE DATE 15 MAR 18 AIP SUP IFR 006/2018 EFFECTIVE DATE 18 JUN 18 AIC IFR A003/2018 EFFECTIVE DATE 29 AUG 18

valid to:
1811010453EST


Replacing:
BGC0062/18

ICAO
BGGL (SONDRESTROM FIR)

FIR
BGGL

Notam_id:
BGA0486/18

valid from:
1811080000

E) AIP AIRAC AMDT EFFECTIVE DATE 08 NOV 2018: NIL.

valid to:
1811212359




ICAO
BGGL (SONDRESTROM FIR)

FIR
BGGL

Notam_id:
BGA0199/18

valid from:
1805310935

E) GREENLAND AND ADJACENT WATERS ARE CONSIDERED HOSTILE AREAS BY THE CIVIL AVIATION AUTHORITY (TBST). THREE MAJOR REASONS CONTRIBUTE TO DEFINING THE AREA AS HOSTILE: A SAFE FORCED LANDING CANNOT BE ACCOMPLISHED BECAUSE THE SURFACE IS INADEQUATE. THE HELICOPTER OCCUPANTS CANNOT BE ADEQUATELY PROTECTED FROM THE ELEMENTS. SEARCH AND RESCUE RESPONSE/CAPABILITY ARE NOT PROVIDED CONSISTENT WITH ANTICIPATED EXPOSURE.

valid to:
PERM




ICAO
BGJN (ILULISSAT)

FIR
BGGL

Notam_id:
BGB0696/18

valid from:
1810110000

E) TRIGGER NOTAM - PERM AIP AIRAC AMDT 09/18 WEF 11 OCT 2018. FAX WITHDRAWN.

valid to:
1810242359




ICAO
BGJN (ILULISSAT)

FIR
BGGL

Notam_id:
BGB0750/18

valid from:
1809110956

E) RWY 07/25 EVERY SECOND APCH LIGHT OUT OF SERVICE.

valid to:
1810312000




ICAO
BGJN (ILULISSAT)

FIR
BGGL

Notam_id:
BGB0807/18

valid from:
1810110929

E) SEA RESCUE OUT OF SERVICE

valid to:
1810251900




ICAO
BGJN (ILULISSAT)

FIR
BGGL

Notam_id:
BGB0605/18

valid from:
1807201213

E) ILULISSAT FAX +299 94 40 08 TERMINATED AND NO LONGER IN USE.

valid to:
PERM




ICAO
BGSF (KANGERLUSSUAQ)

FIR
BGGL

Notam_id:
BGA0541/18

valid from:
1810191025

E) APPROACH LIGHTS, PAPI LIGHTS AND RUNWAY EDGE LIGHTS ARE SET ON 10 PCT INTENSITY. 20 MINUTES PRIOR NOTICE REQUIRED TO CHANGE SETTING.

valid to:
1810312359




ICAO
BGSF (KANGERLUSSUAQ)

FIR
BGGL

Notam_id:
BGA0445/18

valid from:
1809131554

E) BGSF FBO E-MAIL ADDRESS: BGSF(AT)MIT.GL REF AIP GRL/AD 2 - BGSF, GEN 3.3 - 2 AND GEN 3.4 - 3.

valid to:
PERM





Copyright Naviair   2003-2016